Isleta, NM (87022)

4:43 PM MDT on August 30, 2015 (GMT -0600)
Peralta | | Change Station
CLOSE
Current Station
Personal Weather Station
Location: Peralta, NM
Elevation: 4882 ft
Nearby Weather Stations

Elev 4882 ft 34.84 °N, 106.67 °W | Updated 8 seconds ago

Clear
Clear
94.5 °F
Feels Like 90 °F
N
0.0
Wind Variable Wind from ESE
Gusts 0.0 mph

Today
High -- | Low -- °F
--% Chance of Precip.
Yesterday
High -- | Low -- °F
Precip. -- in
6:37 AM 7:36 PM
Full, 98% visible
Pressure 29.84 in
Visibility 10.0 miles
Clouds Scattered Clouds 9000 ft
Scattered Clouds 18000 ft
Heat Index 90 °F
Dew Point 30 °F
Humidity 10%
Rainfall 0.00 in
Snow Depth Not available.
UV 3.0 out of 12
Pollen 7.70 out of 12
Air Quality Not available.
Flu Activity Not available.
METAR KABQ 302152Z 00000KT 10SM SCT090 SCT180 32/05 A3012 RMK AO2 SLP105 T03220050
Pressure 29.84 in
Visibility 10.0 miles
Clouds Scattered Clouds 9000 ft
Scattered Clouds 18000 ft
Heat Index 90 °F
Dew Point 30 °F
Humidity 10%
Rainfall 0.00 in
Snow Depth Not available.
UV 3.0 out of 12
Pollen 7.70 out of 12
Air Quality Not available.
Flu Activity Not available.
METAR KABQ 302152Z 00000KT 10SM SCT090 SCT180 32/05 A3012 RMK AO2 SLP105 T03220050

10-Day Weather Forecast

×

Almanac

Astronomy

Aug. 30, 2015 Rise Set
Actual Time
Civil Twilight
Nautical Twilight
Astronomical Twilight
Moon
Length of Visible Light
Length of Day
Tomorrow will be .
, % of the Moon is Illuminated

Today's Extremes

State Highs State Lows

Community

WunderPhotos

Upload Photos

1,851,075 photos uploaded!

WunderBlogs® & News

Nearby

Air Quality

  Air Quality AQ Index Pollutant
Not available.

Snow Depth

Station Depth Elevation

Earthquake Activity

City Distance Mag. Time & Date
Minimum magnitude displayed is 2.5.

Coastal Water Temperatures

Place Temperature

Stations

Nearby Weather Stations

Station Location Temp. Windchill Dew Point Humidity Wind Precip. Elev Updated Type